createdAt,value
2023-02-08T00:01:15.852Z,19.83
2023-02-08T00:03:44.688Z,13.20
2023-02-08T00:06:13.543Z,19.10
2023-02-08T00:08:41.206Z,13.63
2023-02-08T00:11:10.669Z,13.68
2023-02-08T00:13:41.802Z,14.63
2023-02-08T00:16:10.284Z,13.98
2023-02-08T00:18:37.300Z,15.23
2023-02-08T00:21:09.877Z,13.30
2023-02-08T00:23:37.661Z,15.25
2023-02-08T00:26:05.527Z,18.63
2023-02-08T00:28:33.480Z,13.18
2023-02-08T00:31:01.066Z,12.63
2023-02-08T00:33:28.608Z,14.50
2023-02-08T00:36:01.897Z,14.23
2023-02-08T00:38:29.698Z,14.93
2023-02-08T00:40:57.642Z,14.00
2023-02-08T00:43:24.820Z,13.48
2023-02-08T00:45:56.159Z,12.43
2023-02-08T00:48:25.698Z,13.32
2023-02-08T00:51:04.053Z,12.43
2023-02-08T00:53:31.790Z,12.05
2023-02-08T00:55:59.547Z,11.25
2023-02-08T00:58:26.700Z,12.75
2023-02-08T01:00:54.406Z,17.88
2023-02-08T01:03:22.850Z,14.07
2023-02-08T01:05:51.215Z,13.43
2023-02-08T01:08:20.493Z,11.75
2023-02-08T01:10:48.219Z,11.02
2023-02-08T01:13:15.390Z,11.60
2023-02-08T01:15:43.702Z,11.30
2023-02-08T01:18:11.194Z,12.13
2023-02-08T01:20:39.549Z,10.85
2023-02-08T01:23:06.687Z,10.95
2023-02-08T01:25:34.136Z,10.98
2023-02-08T01:28:01.229Z,10.18
2023-02-08T01:30:28.898Z,11.18
2023-02-08T01:32:56.120Z,11.75
2023-02-08T01:35:23.472Z,11.13
2023-02-08T01:37:51.125Z,11.50
2023-02-08T01:40:18.896Z,11.48
2023-02-08T01:42:45.974Z,10.45
2023-02-08T01:45:16.415Z,12.48
2023-02-08T01:47:47.123Z,12.38
2023-02-08T01:50:19.154Z,12.73
2023-02-08T01:52:46.816Z,13.02
2023-02-08T01:55:23.916Z,13.55
2023-02-08T01:57:54.945Z,11.70
2023-02-08T02:00:23.428Z,11.88
2023-02-08T02:02:53.785Z,10.93
2023-02-08T02:05:24.321Z,10.45
2023-02-08T02:07:54.888Z,10.73
2023-02-08T02:10:27.913Z,11.10
2023-02-08T02:12:58.519Z,10.90
2023-02-08T02:15:26.273Z,11.00
2023-02-08T02:17:53.755Z,11.15
2023-02-08T02:20:47.934Z,12.30
2023-02-08T02:23:15.344Z,11.40
2023-02-08T02:26:25.187Z,12.23
2023-02-08T02:29:04.209Z,11.63
2023-02-08T02:31:52.082Z,11.63
2023-02-08T02:34:45.974Z,10.10
2023-02-08T02:37:53.996Z,12.25
2023-02-08T02:40:57.350Z,11.57
2023-02-08T02:43:45.972Z,13.35
2023-02-08T02:46:32.174Z,14.23
2023-02-08T02:49:04.570Z,15.00
2023-02-08T02:51:58.322Z,14.63
2023-02-08T02:54:34.592Z,14.10
2023-02-08T02:57:07.747Z,14.95
2023-02-08T02:59:38.380Z,14.90
2023-02-08T03:02:06.545Z,14.05
2023-02-08T03:04:34.004Z,12.95
2023-02-08T03:07:20.764Z,14.25
2023-02-08T03:10:00.996Z,14.50
2023-02-08T03:13:07.592Z,13.07
2023-02-08T03:16:15.616Z,13.77
2023-02-08T03:19:06.005Z,12.20
2023-02-08T03:21:42.473Z,11.05
2023-02-08T03:24:27.909Z,10.77
2023-02-08T03:27:01.107Z,10.63
2023-02-08T03:29:38.092Z,11.57
2023-02-08T03:32:29.530Z,13.20
2023-02-08T03:35:06.243Z,14.48
2023-02-08T03:37:40.108Z,13.50
2023-02-08T03:40:20.632Z,15.70
2023-02-08T03:42:49.218Z,15.88
2023-02-08T03:45:21.737Z,17.88
2023-02-08T03:47:51.820Z,15.95
2023-02-08T03:50:21.190Z,15.02
2023-02-08T03:52:50.485Z,13.75
2023-02-08T03:55:27.583Z,15.60
2023-02-08T03:58:13.017Z,16.45
2023-02-08T04:00:44.266Z,17.30
2023-02-08T04:03:20.364Z,18.35
2023-02-08T04:05:48.158Z,16.63
2023-02-08T04:08:15.515Z,19.83
2023-02-08T04:10:43.032Z,31.20
2023-02-08T04:13:12.067Z,24.25
2023-02-08T04:15:39.673Z,20.27
2023-02-08T04:18:07.228Z,22.40
2023-02-08T04:20:34.370Z,37.30
2023-02-08T04:23:01.923Z,39.17
2023-02-08T04:25:29.020Z,36.47
2023-02-08T04:27:56.456Z,28.70
2023-02-08T04:30:23.674Z,24.35
2023-02-08T04:32:51.149Z,25.25
2023-02-08T04:35:18.274Z,32.10
2023-02-08T04:37:45.618Z,53.42
2023-02-08T04:40:12.789Z,25.88
2023-02-08T04:42:40.211Z,23.65
2023-02-08T04:45:07.648Z,31.30
2023-02-08T04:47:35.077Z,35.22
2023-02-08T04:50:02.314Z,25.30
2023-02-08T04:52:30.415Z,39.28
2023-02-08T04:54:57.702Z,41.90
2023-02-08T04:57:25.020Z,43.03
2023-02-08T04:59:52.200Z,42.30
2023-02-08T05:02:19.700Z,35.10
2023-02-08T05:04:46.798Z,28.15
2023-02-08T05:07:14.631Z,30.77
2023-02-08T05:09:43.960Z,28.25
2023-02-08T05:12:11.827Z,25.02
2023-02-08T05:14:38.964Z,25.48
2023-02-08T05:17:06.385Z,25.55
2023-02-08T05:19:34.334Z,25.23
2023-02-08T05:22:02.057Z,24.30
2023-02-08T05:24:29.579Z,22.33
2023-02-08T05:26:56.840Z,28.73
2023-02-08T05:29:23.882Z,28.45
2023-02-08T05:31:51.423Z,26.30
2023-02-08T05:34:18.982Z,24.90
2023-02-08T05:36:46.608Z,28.52
2023-02-08T05:39:13.718Z,29.25
2023-02-08T05:41:41.442Z,26.50
2023-02-08T05:44:08.694Z,24.88
2023-02-08T05:46:38.164Z,34.67
2023-02-08T05:49:06.124Z,26.38
2023-02-08T05:51:33.798Z,25.35
2023-02-08T05:54:00.827Z,28.10
2023-02-08T05:56:28.575Z,23.58
2023-02-08T05:58:55.664Z,24.30
2023-02-08T06:01:23.566Z,24.92
2023-02-08T06:03:50.864Z,24.30
2023-02-08T06:06:18.287Z,25.25
2023-02-08T06:08:45.318Z,26.65
2023-02-08T06:11:12.684Z,27.38
2023-02-08T06:13:39.748Z,27.30
2023-02-08T06:16:07.754Z,28.83
2023-02-08T06:18:34.804Z,31.00
2023-02-08T06:21:02.244Z,28.50
2023-02-08T06:23:29.666Z,27.90
2023-02-08T06:25:57.037Z,34.70
2023-02-08T06:28:24.073Z,44.17
2023-02-08T06:30:52.310Z,41.75
2023-02-08T06:33:20.068Z,33.50
2023-02-08T06:35:48.345Z,39.78
2023-02-08T06:38:15.843Z,40.70
2023-02-08T06:40:46.784Z,41.13
2023-02-08T06:43:14.857Z,59.55
2023-02-08T06:45:45.451Z,160.27
2023-02-08T06:48:13.103Z,150.82
2023-02-08T06:50:40.774Z,148.90
2023-02-08T06:53:08.445Z,128.05
2023-02-08T06:55:36.221Z,88.00
2023-02-08T06:58:03.705Z,85.00
2023-02-08T07:00:33.208Z,46.55
2023-02-08T07:03:02.754Z,50.72
2023-02-08T07:05:30.202Z,51.85
2023-02-08T07:07:57.857Z,58.97
2023-02-08T07:10:25.821Z,61.92
2023-02-08T07:12:52.987Z,100.57
2023-02-08T07:15:20.722Z,129.48
2023-02-08T07:17:49.882Z,135.32
2023-02-08T07:20:17.607Z,120.28
2023-02-08T07:22:44.643Z,87.72
2023-02-08T07:25:12.394Z,70.82
2023-02-08T07:27:39.693Z,64.82
2023-02-08T07:30:08.340Z,91.70
2023-02-08T07:32:35.603Z,151.23
2023-02-08T07:35:04.070Z,147.13
2023-02-08T07:37:33.040Z,135.65
2023-02-08T07:40:00.410Z,111.45
2023-02-08T07:42:27.501Z,87.38
2023-02-08T07:45:19.756Z,74.50
2023-02-08T07:47:46.953Z,70.32
2023-02-08T07:50:16.371Z,104.00
2023-02-08T07:52:45.996Z,82.95
2023-02-08T07:55:17.169Z,78.60
2023-02-08T07:57:45.373Z,81.45
2023-02-08T08:00:15.559Z,65.05
2023-02-08T08:02:43.140Z,50.10
2023-02-08T08:05:12.066Z,61.25
2023-02-08T08:07:39.145Z,49.47
2023-02-08T08:10:06.956Z,48.63
2023-02-08T08:12:34.103Z,92.18
2023-02-08T08:15:01.444Z,306.02
2023-02-08T08:17:29.981Z,164.90
2023-02-08T08:20:00.361Z,82.53
2023-02-08T08:22:27.450Z,58.13
2023-02-08T08:24:55.105Z,87.30
2023-02-08T08:27:23.598Z,49.05
2023-02-08T08:29:51.475Z,45.45
2023-02-08T08:32:18.521Z,41.95
2023-02-08T08:34:45.823Z,96.38
2023-02-08T08:37:12.946Z,86.68
2023-02-08T08:39:40.640Z,79.22
2023-02-08T08:42:07.732Z,57.15
2023-02-08T08:44:35.179Z,69.15
2023-02-08T08:47:02.308Z,35.85
2023-02-08T08:49:30.219Z,70.32
2023-02-08T08:51:58.190Z,86.32
2023-02-08T08:54:25.514Z,53.67
2023-02-08T08:56:52.780Z,44.55
2023-02-08T08:59:20.245Z,122.10
2023-02-08T09:01:47.438Z,68.13
2023-02-08T09:04:14.914Z,43.95
2023-02-08T09:06:42.063Z,102.95
2023-02-08T09:09:10.128Z,63.25
2023-02-08T09:11:37.649Z,75.35
2023-02-08T09:14:05.378Z,77.40
2023-02-08T09:16:32.858Z,73.65
2023-02-08T09:19:04.649Z,56.72
2023-02-08T09:21:32.088Z,60.65
2023-02-08T09:24:01.369Z,54.63
2023-02-08T09:26:32.169Z,40.60
2023-02-08T09:28:59.795Z,49.33
2023-02-08T09:31:30.149Z,27.95
2023-02-08T09:34:03.460Z,55.05
2023-02-08T09:36:34.454Z,76.45
2023-02-08T09:39:20.328Z,52.03
2023-02-08T09:42:14.731Z,36.50
2023-02-08T09:45:09.195Z,36.28
2023-02-08T09:48:00.385Z,38.92
2023-02-08T09:51:01.579Z,62.78
2023-02-08T09:53:41.350Z,58.38
2023-02-08T09:56:17.021Z,35.72
2023-02-08T09:58:46.377Z,22.58
2023-02-08T10:01:28.850Z,29.55
2023-02-08T10:04:12.258Z,34.17
2023-02-08T10:06:39.645Z,27.15
2023-02-08T10:09:10.998Z,25.35
2023-02-08T10:11:53.319Z,49.95
2023-02-08T10:14:32.773Z,32.30
2023-02-08T10:17:27.181Z,19.85
2023-02-08T10:20:10.480Z,52.10
2023-02-08T10:23:06.101Z,71.60
2023-02-08T10:25:48.333Z,43.80
2023-02-08T10:28:56.259Z,67.18
2023-02-08T10:32:00.277Z,79.22
2023-02-08T10:34:37.085Z,79.53
2023-02-08T10:37:30.184Z,42.15
2023-02-08T10:40:18.980Z,40.50
2023-02-08T10:45:25.334Z,34.50
2023-02-08T10:48:00.431Z,27.30
2023-02-08T10:50:40.661Z,33.63
2023-02-08T10:53:20.488Z,31.15
2023-02-08T10:55:50.610Z,32.80
2023-02-08T10:58:20.696Z,38.05
2023-02-08T11:00:57.619Z,65.65
2023-02-08T11:03:28.061Z,50.47
2023-02-08T11:05:57.677Z,29.02
2023-02-08T11:08:27.773Z,59.95
2023-02-08T11:11:08.851Z,54.50
2023-02-08T11:13:43.460Z,37.50
2023-02-08T11:16:13.820Z,27.85
2023-02-08T11:18:56.894Z,52.63
2023-02-08T11:21:39.036Z,29.40
2023-02-08T11:24:15.427Z,77.55
2023-02-08T11:26:49.043Z,57.70
2023-02-08T11:29:30.886Z,45.97
2023-02-08T11:32:20.065Z,43.90
2023-02-08T11:34:48.866Z,43.47
2023-02-08T11:37:30.709Z,70.10
2023-02-08T11:40:02.081Z,57.42
2023-02-08T11:42:36.614Z,73.22
2023-02-08T11:45:19.184Z,72.28
2023-02-08T11:47:50.295Z,86.68
2023-02-08T11:50:43.753Z,59.40
2023-02-08T11:53:28.030Z,49.25
2023-02-08T11:56:02.709Z,35.53
2023-02-08T12:01:05.475Z,30.42
2023-02-08T12:03:37.628Z,25.02
2023-02-08T12:06:23.058Z,34.92
2023-02-08T12:09:10.090Z,36.38
2023-02-08T12:11:45.485Z,32.42
2023-02-08T12:14:24.385Z,30.08
2023-02-08T12:17:12.444Z,30.90
2023-02-08T12:20:04.278Z,32.13
2023-02-08T12:22:31.749Z,28.27
2023-02-08T12:25:22.331Z,26.80
2023-02-08T12:28:16.699Z,31.45
2023-02-08T12:31:05.312Z,38.00
2023-02-08T12:33:57.255Z,65.00
2023-02-08T12:36:32.649Z,99.28
2023-02-08T12:39:30.252Z,82.00
2023-02-08T12:42:24.088Z,75.88
2023-02-08T12:45:15.250Z,82.40
2023-02-08T12:48:14.304Z,71.82
2023-02-08T12:51:02.417Z,30.55
2023-02-08T12:53:44.984Z,38.67
2023-02-08T12:56:23.219Z,31.15
2023-02-08T12:58:59.023Z,27.27
2023-02-08T13:01:35.724Z,30.73
2023-02-08T13:04:15.141Z,40.42
2023-02-08T13:06:52.749Z,32.75
2023-02-08T13:09:25.682Z,55.40
2023-02-08T13:11:59.938Z,68.68
2023-02-08T13:14:35.846Z,42.13
2023-02-08T13:17:28.740Z,51.22
2023-02-08T13:20:04.958Z,41.50
2023-02-08T13:22:42.471Z,41.53
2023-02-08T13:25:21.329Z,80.78
2023-02-08T13:27:48.745Z,49.75
2023-02-08T13:30:21.239Z,43.00
2023-02-08T13:32:50.722Z,88.45
2023-02-08T13:35:27.108Z,47.40
2023-02-08T13:38:18.430Z,66.43
2023-02-08T13:40:46.150Z,48.75
2023-02-08T13:43:35.991Z,51.25
2023-02-08T13:46:04.745Z,40.15
2023-02-08T13:48:46.128Z,61.92
2023-02-08T13:51:31.629Z,44.03
2023-02-08T13:53:58.671Z,52.42
2023-02-08T13:56:48.254Z,75.25
2023-02-08T13:59:35.331Z,94.45
2023-02-08T14:02:11.847Z,81.97
2023-02-08T14:04:43.412Z,84.57
2023-02-08T14:07:42.184Z,50.90
2023-02-08T14:10:34.702Z,20.83
2023-02-08T14:13:09.247Z,21.88
2023-02-08T14:15:39.582Z,25.60
2023-02-08T14:18:26.551Z,23.55
2023-02-08T14:21:02.738Z,27.23
2023-02-08T14:23:32.872Z,25.05
2023-02-08T14:26:07.549Z,13.18
2023-02-08T14:31:15.668Z,25.55
2023-02-08T14:33:53.260Z,27.95
2023-02-08T14:36:35.125Z,29.15
2023-02-08T14:39:22.817Z,28.25
2023-02-08T14:42:06.387Z,22.05
2023-02-08T14:44:41.705Z,23.90
2023-02-08T14:47:39.636Z,22.77
2023-02-08T14:50:32.555Z,27.38
2023-02-08T14:53:00.068Z,25.00
2023-02-08T14:55:32.512Z,32.25
2023-02-08T14:58:01.134Z,26.08
2023-02-08T15:00:37.839Z,27.30
2023-02-08T15:03:07.261Z,23.48
2023-02-08T15:05:44.893Z,27.48
2023-02-08T15:08:13.306Z,29.85
2023-02-08T15:10:45.167Z,27.85
2023-02-08T15:13:22.203Z,26.25
2023-02-08T15:15:54.562Z,28.67
2023-02-08T15:18:30.887Z,25.60
2023-02-08T15:21:07.301Z,21.75
2023-02-08T15:23:34.448Z,25.92
2023-02-08T15:26:22.740Z,28.83
2023-02-08T15:28:49.987Z,29.60
2023-02-08T15:31:20.508Z,44.03
2023-02-08T15:33:47.913Z,25.60
2023-02-08T15:36:25.379Z,30.92
2023-02-08T15:38:53.893Z,45.05
2023-02-08T15:41:33.966Z,37.88
2023-02-08T15:44:23.744Z,91.07
2023-02-08T15:49:30.774Z,49.80
2023-02-08T15:52:02.450Z,34.55
2023-02-08T15:54:30.830Z,30.17
2023-02-08T15:57:33.264Z,38.97
2023-02-08T16:00:01.624Z,100.93
2023-02-08T16:02:54.125Z,61.58
2023-02-08T16:05:25.446Z,32.60
2023-02-08T16:07:53.593Z,32.55
2023-02-08T16:10:33.978Z,52.95
2023-02-08T16:13:06.051Z,49.45
2023-02-08T16:15:52.046Z,51.28
2023-02-08T16:18:46.168Z,31.20
2023-02-08T16:21:21.059Z,59.63
2023-02-08T16:23:51.557Z,55.47
2023-02-08T16:26:28.713Z,41.08
2023-02-08T16:29:01.337Z,37.75
2023-02-08T16:31:31.232Z,31.23
2023-02-08T16:34:07.204Z,31.35
2023-02-08T16:36:40.709Z,33.65
2023-02-08T16:39:19.982Z,30.95
2023-02-08T16:41:54.450Z,36.92
2023-02-08T16:44:26.143Z,28.58
2023-02-08T16:46:53.272Z,28.88
2023-02-08T16:49:20.750Z,35.08
2023-02-08T16:51:53.751Z,45.35
2023-02-08T16:54:22.449Z,35.42
2023-02-08T16:56:53.704Z,34.80
2023-02-08T16:59:21.529Z,51.60
2023-02-08T17:01:50.315Z,30.35
2023-02-08T17:04:22.466Z,29.13
2023-02-08T17:06:50.101Z,32.00
2023-02-08T17:09:17.560Z,32.85
2023-02-08T17:11:44.706Z,58.70
2023-02-08T17:14:12.176Z,73.35
2023-02-08T17:16:40.511Z,51.95
2023-02-08T17:19:13.730Z,59.92
2023-02-08T17:21:40.847Z,57.60
2023-02-08T17:24:08.522Z,39.55
2023-02-08T17:26:42.661Z,50.65
2023-02-08T17:29:15.488Z,44.22
2023-02-08T17:31:42.947Z,49.38
2023-02-08T17:34:10.802Z,45.08
2023-02-08T17:36:37.955Z,36.13
2023-02-08T17:39:05.900Z,43.17
2023-02-08T17:41:33.594Z,41.13
2023-02-08T17:44:01.658Z,53.05
2023-02-08T17:46:32.716Z,55.83
2023-02-08T17:49:01.752Z,124.50
2023-02-08T17:51:29.221Z,125.93
2023-02-08T17:53:56.913Z,118.28
2023-02-08T17:56:27.492Z,82.90
2023-02-08T17:58:55.730Z,96.00
2023-02-08T18:01:26.416Z,87.38
2023-02-08T18:03:54.773Z,97.65
2023-02-08T18:06:24.920Z,111.65
2023-02-08T18:08:56.554Z,134.15
2023-02-08T18:11:24.334Z,116.20
2023-02-08T18:13:53.736Z,111.25
2023-02-08T18:16:24.378Z,147.05
2023-02-08T18:18:52.490Z,89.75
2023-02-08T18:21:22.055Z,56.20
2023-02-08T18:23:50.244Z,44.08
2023-02-08T18:26:20.535Z,74.72
2023-02-08T18:28:54.279Z,53.97
2023-02-08T18:31:21.563Z,49.17
2023-02-08T18:33:49.969Z,47.17
2023-02-08T18:36:17.804Z,49.92
2023-02-08T18:38:47.042Z,50.72
2023-02-08T18:41:18.332Z,62.72
2023-02-08T18:43:46.008Z,48.90
2023-02-08T18:46:18.670Z,38.45
2023-02-08T18:48:50.577Z,31.75
2023-02-08T18:51:19.809Z,25.00
2023-02-08T18:53:51.221Z,24.02
2023-02-08T18:56:24.224Z,24.45
2023-02-08T18:58:53.888Z,25.92
2023-02-08T19:01:23.316Z,26.10
2023-02-08T19:03:52.018Z,31.48
2023-02-08T19:06:24.990Z,31.58
2023-02-08T19:08:55.942Z,28.70
2023-02-08T19:11:25.570Z,27.00
2023-02-08T19:13:58.852Z,31.38
2023-02-08T19:18:57.338Z,26.83
2023-02-08T19:21:25.349Z,34.90
2023-02-08T19:23:53.708Z,36.97
2023-02-08T19:26:21.145Z,33.97
2023-02-08T19:28:49.491Z,39.53
2023-02-08T19:31:22.038Z,27.90
2023-02-08T19:33:58.748Z,27.77
2023-02-08T19:36:34.572Z,24.77
2023-02-08T19:39:04.307Z,28.20
2023-02-08T19:41:34.909Z,31.70
2023-02-08T19:44:05.514Z,37.63
2023-02-08T19:46:34.610Z,39.60
2023-02-08T19:49:02.451Z,40.30
2023-02-08T19:51:35.177Z,37.83
2023-02-08T19:54:05.927Z,39.03
2023-02-08T19:56:36.566Z,34.05
2023-02-08T19:59:06.481Z,45.53
2023-02-08T20:01:35.667Z,36.63
2023-02-08T20:04:06.244Z,34.13
2023-02-08T20:06:37.185Z,31.42
2023-02-08T20:09:06.565Z,34.15
2023-02-08T20:11:51.290Z,41.10
2023-02-08T20:14:24.449Z,45.33
2023-02-08T20:16:51.990Z,48.05
2023-02-08T20:19:19.719Z,62.05
2023-02-08T20:21:46.769Z,45.92
2023-02-08T20:24:14.667Z,36.67
2023-02-08T20:26:47.306Z,33.97
2023-02-08T20:29:15.823Z,36.53
2023-02-08T20:31:47.490Z,29.05
2023-02-08T20:34:16.893Z,30.83
2023-02-08T20:36:49.615Z,32.45
2023-02-08T20:39:20.750Z,32.50
2023-02-08T20:41:48.651Z,33.42
2023-02-08T20:44:17.945Z,29.60
2023-02-08T20:46:46.794Z,30.17
2023-02-08T20:49:17.543Z,32.92
2023-02-08T20:51:45.755Z,25.58
2023-02-08T20:54:15.478Z,30.55
2023-02-08T20:56:42.540Z,27.13
2023-02-08T20:59:13.735Z,23.83
2023-02-08T21:01:40.917Z,22.08
2023-02-08T21:04:08.265Z,25.17
2023-02-08T21:06:38.173Z,25.23
2023-02-08T21:09:15.144Z,27.55
2023-02-08T21:11:43.052Z,26.17
2023-02-08T21:14:18.498Z,19.20
2023-02-08T21:16:47.856Z,21.58
2023-02-08T21:19:17.175Z,23.75
2023-02-08T21:21:50.956Z,26.42
2023-02-08T21:24:18.368Z,23.60
2023-02-08T21:26:45.613Z,19.67
2023-02-08T21:29:12.919Z,21.77
2023-02-08T21:31:40.035Z,20.38
2023-02-08T21:34:07.461Z,21.90
2023-02-08T21:36:34.910Z,22.50
2023-02-08T21:39:05.481Z,21.33
2023-02-08T21:41:34.272Z,24.95
2023-02-08T21:44:03.916Z,21.77
2023-02-08T21:46:34.430Z,23.50
2023-02-08T21:49:20.502Z,23.65
2023-02-08T21:52:06.062Z,17.83
2023-02-08T21:54:46.793Z,23.58
2023-02-08T21:57:18.994Z,18.13
2023-02-08T21:59:51.835Z,23.85
2023-02-08T22:02:26.075Z,21.05
2023-02-08T22:04:55.606Z,14.63
2023-02-08T22:07:27.287Z,20.55
2023-02-08T22:09:58.550Z,19.10
2023-02-08T22:12:26.589Z,19.08
2023-02-08T22:14:53.433Z,17.02
2023-02-08T22:17:20.833Z,22.00
2023-02-08T22:19:48.219Z,19.23
2023-02-08T22:22:16.109Z,23.52
2023-02-08T22:24:43.232Z,22.70
2023-02-08T22:27:11.543Z,20.13
2023-02-08T22:29:38.571Z,22.08
2023-02-08T22:32:07.460Z,20.05
2023-02-08T22:34:36.534Z,20.02
2023-02-08T22:37:06.257Z,22.65
2023-02-08T22:39:34.207Z,20.60
2023-02-08T22:42:08.008Z,23.83
2023-02-08T22:44:36.291Z,23.50
2023-02-08T22:47:06.425Z,27.50
2023-02-08T22:49:34.625Z,19.77
2023-02-08T22:52:08.587Z,21.52
2023-02-08T22:54:36.380Z,22.60
2023-02-08T22:57:06.001Z,25.90
2023-02-08T22:59:33.657Z,25.38
2023-02-08T23:02:02.206Z,27.15
2023-02-08T23:04:31.206Z,21.33
2023-02-08T23:06:59.699Z,26.88
2023-02-08T23:09:26.814Z,26.17
2023-02-08T23:11:54.178Z,24.88
2023-02-08T23:14:21.168Z,24.10
2023-02-08T23:16:48.521Z,22.40
2023-02-08T23:19:16.925Z,23.13
2023-02-08T23:21:44.594Z,23.85
2023-02-08T23:24:11.756Z,24.08
2023-02-08T23:26:39.461Z,24.67
2023-02-08T23:29:06.480Z,24.20
2023-02-08T23:31:34.023Z,23.80
2023-02-08T23:34:01.225Z,21.95
2023-02-08T23:36:28.491Z,22.95
2023-02-08T23:38:55.455Z,21.52
2023-02-08T23:41:23.902Z,19.17
2023-02-08T23:43:52.245Z,20.60
2023-02-08T23:46:22.260Z,21.08
2023-02-08T23:48:49.908Z,22.27
2023-02-08T23:51:20.073Z,22.73
2023-02-08T23:53:50.565Z,24.73
2023-02-08T23:56:27.687Z,21.85
2023-02-08T23:58:57.438Z,25.35
